sensor_id;sensor_type;location;lat;lon;timestamp;P1;durP1;ratioP1;P2;durP2;ratioP2
48241;SDS011;34041;51.812;4.622;2023-08-06T00:02:40;4.80;;;3.63;;
48241;SDS011;34041;51.812;4.622;2023-08-06T00:05:41;5.13;;;3.23;;
48241;SDS011;34041;51.812;4.622;2023-08-06T00:08:42;4.43;;;3.17;;
48241;SDS011;34041;51.812;4.622;2023-08-06T00:11:42;5.22;;;3.80;;
48241;SDS011;34041;51.812;4.622;2023-08-06T00:14:44;4.30;;;3.45;;
48241;SDS011;34041;51.812;4.622;2023-08-06T00:17:44;4.07;;;3.35;;
48241;SDS011;34041;51.812;4.622;2023-08-06T00:20:44;4.57;;;3.13;;
48241;SDS011;34041;51.812;4.622;2023-08-06T00:23:44;4.00;;;3.03;;
48241;SDS011;34041;51.812;4.622;2023-08-06T00:26:45;4.18;;;3.22;;
48241;SDS011;34041;51.812;4.622;2023-08-06T00:29:45;6.00;;;3.33;;
48241;SDS011;34041;51.812;4.622;2023-08-06T00:32:45;7.43;;;4.53;;
48241;SDS011;34041;51.812;4.622;2023-08-06T00:35:45;3.97;;;2.95;;
48241;SDS011;34041;51.812;4.622;2023-08-06T00:38:46;4.63;;;3.40;;
48241;SDS011;34041;51.812;4.622;2023-08-06T00:41:47;4.93;;;3.10;;
48241;SDS011;34041;51.812;4.622;2023-08-06T00:44:47;4.95;;;3.33;;
48241;SDS011;34041;51.812;4.622;2023-08-06T00:47:47;8.80;;;3.63;;
48241;SDS011;34041;51.812;4.622;2023-08-06T00:50:48;4.30;;;2.78;;
48241;SDS011;34041;51.812;4.622;2023-08-06T00:53:50;3.97;;;2.97;;
48241;SDS011;34041;51.812;4.622;2023-08-06T00:56:52;5.85;;;3.28;;
48241;SDS011;34041;51.812;4.622;2023-08-06T00:59:53;3.17;;;2.83;;
48241;SDS011;34041;51.812;4.622;2023-08-06T01:02:53;5.22;;;2.58;;
48241;SDS011;34041;51.812;4.622;2023-08-06T01:05:54;4.45;;;2.38;;
48241;SDS011;34041;51.812;4.622;2023-08-06T01:08:56;5.70;;;3.15;;
48241;SDS011;34041;51.812;4.622;2023-08-06T01:15:07;4.30;;;2.78;;
48241;SDS011;34041;51.812;4.622;2023-08-06T01:18:08;4.05;;;2.92;;
48241;SDS011;34041;51.812;4.622;2023-08-06T01:21:09;4.30;;;3.03;;
48241;SDS011;34041;51.812;4.622;2023-08-06T01:24:09;7.47;;;3.63;;
48241;SDS011;34041;51.812;4.622;2023-08-06T01:27:11;4.13;;;3.53;;
48241;SDS011;34041;51.812;4.622;2023-08-06T01:30:17;5.40;;;3.92;;
48241;SDS011;34041;51.812;4.622;2023-08-06T01:33:19;4.85;;;3.45;;
48241;SDS011;34041;51.812;4.622;2023-08-06T01:36:21;4.50;;;3.80;;
48241;SDS011;34041;51.812;4.622;2023-08-06T01:39:22;4.00;;;3.13;;
48241;SDS011;34041;51.812;4.622;2023-08-06T01:42:22;5.05;;;3.47;;
48241;SDS011;34041;51.812;4.622;2023-08-06T01:45:22;4.73;;;3.57;;
48241;SDS011;34041;51.812;4.622;2023-08-06T01:48:22;4.10;;;3.13;;
48241;SDS011;34041;51.812;4.622;2023-08-06T01:51:23;5.27;;;3.20;;
48241;SDS011;34041;51.812;4.622;2023-08-06T01:54:23;5.93;;;4.23;;
48241;SDS011;34041;51.812;4.622;2023-08-06T01:57:23;7.10;;;4.10;;
48241;SDS011;34041;51.812;4.622;2023-08-06T02:00:23;4.70;;;4.20;;
48241;SDS011;34041;51.812;4.622;2023-08-06T02:03:23;4.80;;;3.83;;
48241;SDS011;34041;51.812;4.622;2023-08-06T02:06:24;5.90;;;4.30;;
48241;SDS011;34041;51.812;4.622;2023-08-06T02:09:24;4.50;;;3.67;;
48241;SDS011;34041;51.812;4.622;2023-08-06T02:12:24;8.75;;;5.30;;
48241;SDS011;34041;51.812;4.622;2023-08-06T02:15:24;6.37;;;4.07;;
48241;SDS011;34041;51.812;4.622;2023-08-06T02:18:25;6.70;;;5.03;;
48241;SDS011;34041;51.812;4.622;2023-08-06T02:21:25;7.03;;;4.80;;
48241;SDS011;34041;51.812;4.622;2023-08-06T02:24:25;8.07;;;6.47;;
48241;SDS011;34041;51.812;4.622;2023-08-06T02:27:25;9.77;;;5.77;;
48241;SDS011;34041;51.812;4.622;2023-08-06T02:30:25;7.87;;;6.63;;
48241;SDS011;34041;51.812;4.622;2023-08-06T02:33:26;9.13;;;7.22;;
48241;SDS011;34041;51.812;4.622;2023-08-06T02:36:26;7.10;;;6.40;;
48241;SDS011;34041;51.812;4.622;2023-08-06T02:39:29;8.13;;;7.30;;
48241;SDS011;34041;51.812;4.622;2023-08-06T02:42:29;7.25;;;6.43;;
48241;SDS011;34041;51.812;4.622;2023-08-06T02:45:29;8.43;;;7.17;;
48241;SDS011;34041;51.812;4.622;2023-08-06T02:48:29;7.80;;;7.10;;
48241;SDS011;34041;51.812;4.622;2023-08-06T02:51:30;8.65;;;7.82;;
48241;SDS011;34041;51.812;4.622;2023-08-06T02:54:30;8.53;;;7.63;;
48241;SDS011;34041;51.812;4.622;2023-08-06T02:57:31;8.50;;;7.57;;
48241;SDS011;34041;51.812;4.622;2023-08-06T03:00:31;9.57;;;8.47;;
48241;SDS011;34041;51.812;4.622;2023-08-06T03:03:31;10.00;;;8.68;;
48241;SDS011;34041;51.812;4.622;2023-08-06T03:06:32;13.38;;;7.90;;
48241;SDS011;34041;51.812;4.622;2023-08-06T03:09:32;8.88;;;7.97;;
48241;SDS011;34041;51.812;4.622;2023-08-06T03:12:32;9.23;;;7.63;;
48241;SDS011;34041;51.812;4.622;2023-08-06T03:15:32;9.27;;;7.27;;
48241;SDS011;34041;51.812;4.622;2023-08-06T03:18:33;9.27;;;7.88;;
48241;SDS011;34041;51.812;4.622;2023-08-06T03:21:33;8.97;;;7.20;;
48241;SDS011;34041;51.812;4.622;2023-08-06T03:24:33;9.93;;;6.38;;
48241;SDS011;34041;51.812;4.622;2023-08-06T03:27:33;8.73;;;7.40;;
48241;SDS011;34041;51.812;4.622;2023-08-06T03:30:33;8.63;;;7.73;;
48241;SDS011;34041;51.812;4.622;2023-08-06T03:33:34;8.30;;;7.50;;
48241;SDS011;34041;51.812;4.622;2023-08-06T03:36:34;6.83;;;6.23;;
48241;SDS011;34041;51.812;4.622;2023-08-06T03:39:34;12.80;;;7.53;;
48241;SDS011;34041;51.812;4.622;2023-08-06T03:42:34;8.73;;;7.90;;
48241;SDS011;34041;51.812;4.622;2023-08-06T03:45:35;9.07;;;7.40;;
48241;SDS011;34041;51.812;4.622;2023-08-06T03:48:35;8.93;;;7.80;;
48241;SDS011;34041;51.812;4.622;2023-08-06T03:51:35;9.47;;;7.83;;
48241;SDS011;34041;51.812;4.622;2023-08-06T03:54:35;8.33;;;7.53;;
48241;SDS011;34041;51.812;4.622;2023-08-06T03:57:35;9.10;;;8.20;;
48241;SDS011;34041;51.812;4.622;2023-08-06T04:00:36;6.33;;;5.33;;
48241;SDS011;34041;51.812;4.622;2023-08-06T04:03:36;3.93;;;3.10;;
48241;SDS011;34041;51.812;4.622;2023-08-06T04:06:36;3.73;;;2.50;;
48241;SDS011;34041;51.812;4.622;2023-08-06T04:09:51;3.17;;;2.10;;
48241;SDS011;34041;51.812;4.622;2023-08-06T04:12:51;2.63;;;1.52;;
48241;SDS011;34041;51.812;4.622;2023-08-06T04:15:52;2.80;;;1.48;;
48241;SDS011;34041;51.812;4.622;2023-08-06T04:18:54;3.67;;;1.88;;
48241;SDS011;34041;51.812;4.622;2023-08-06T04:21:55;2.65;;;2.13;;
48241;SDS011;34041;51.812;4.622;2023-08-06T04:24:55;4.90;;;2.27;;
48241;SDS011;34041;51.812;4.622;2023-08-06T04:27:55;3.03;;;2.22;;
48241;SDS011;34041;51.812;4.622;2023-08-06T04:30:56;4.43;;;2.70;;
48241;SDS011;34041;51.812;4.622;2023-08-06T04:33:56;3.83;;;2.87;;
48241;SDS011;34041;51.812;4.622;2023-08-06T04:36:56;4.43;;;2.55;;
48241;SDS011;34041;51.812;4.622;2023-08-06T04:39:56;6.35;;;2.65;;
48241;SDS011;34041;51.812;4.622;2023-08-06T04:42:57;6.60;;;2.50;;
48241;SDS011;34041;51.812;4.622;2023-08-06T04:45:57;4.55;;;2.38;;
48241;SDS011;34041;51.812;4.622;2023-08-06T04:48:57;4.88;;;3.28;;
48241;SDS011;34041;51.812;4.622;2023-08-06T04:51:57;3.67;;;2.43;;
48241;SDS011;34041;51.812;4.622;2023-08-06T04:54:58;4.25;;;2.70;;
48241;SDS011;34041;51.812;4.622;2023-08-06T04:57:58;5.40;;;2.80;;
48241;SDS011;34041;51.812;4.622;2023-08-06T05:00:58;4.10;;;2.87;;
48241;SDS011;34041;51.812;4.622;2023-08-06T05:03:58;6.20;;;2.90;;
48241;SDS011;34041;51.812;4.622;2023-08-06T05:06:59;3.53;;;2.40;;
48241;SDS011;34041;51.812;4.622;2023-08-06T05:10:00;6.18;;;2.60;;
48241;SDS011;34041;51.812;4.622;2023-08-06T05:13:00;6.90;;;3.05;;
48241;SDS011;34041;51.812;4.622;2023-08-06T05:16:01;3.78;;;2.80;;
48241;SDS011;34041;51.812;4.622;2023-08-06T05:19:01;6.18;;;2.38;;
48241;SDS011;34041;51.812;4.622;2023-08-06T05:22:01;5.87;;;3.60;;
48241;SDS011;34041;51.812;4.622;2023-08-06T05:25:02;8.43;;;3.55;;
48241;SDS011;34041;51.812;4.622;2023-08-06T05:28:02;5.38;;;3.00;;
48241;SDS011;34041;51.812;4.622;2023-08-06T05:31:06;7.30;;;2.97;;
48241;SDS011;34041;51.812;4.622;2023-08-06T05:34:06;6.68;;;3.50;;
48241;SDS011;34041;51.812;4.622;2023-08-06T05:37:07;6.57;;;4.38;;
48241;SDS011;34041;51.812;4.622;2023-08-06T05:40:08;5.07;;;3.70;;
48241;SDS011;34041;51.812;4.622;2023-08-06T05:43:08;6.50;;;3.03;;
48241;SDS011;34041;51.812;4.622;2023-08-06T05:46:08;5.33;;;2.73;;
48241;SDS011;34041;51.812;4.622;2023-08-06T05:49:08;4.03;;;3.27;;
48241;SDS011;34041;51.812;4.622;2023-08-06T05:52:08;4.57;;;3.93;;
48241;SDS011;34041;51.812;4.622;2023-08-06T05:55:09;6.33;;;3.10;;
48241;SDS011;34041;51.812;4.622;2023-08-06T05:58:09;5.57;;;3.53;;
48241;SDS011;34041;51.812;4.622;2023-08-06T06:01:09;6.35;;;3.88;;
48241;SDS011;34041;51.812;4.622;2023-08-06T06:04:09;5.50;;;3.73;;
48241;SDS011;34041;51.812;4.622;2023-08-06T06:07:10;8.52;;;3.03;;
48241;SDS011;34041;51.812;4.622;2023-08-06T06:10:10;5.53;;;3.47;;
48241;SDS011;34041;51.812;4.622;2023-08-06T06:13:10;7.68;;;4.05;;
48241;SDS011;34041;51.812;4.622;2023-08-06T06:16:11;7.28;;;3.30;;
48241;SDS011;34041;51.812;4.622;2023-08-06T06:19:11;5.73;;;3.30;;
48241;SDS011;34041;51.812;4.622;2023-08-06T06:22:12;7.97;;;3.80;;
48241;SDS011;34041;51.812;4.622;2023-08-06T06:25:12;6.68;;;4.40;;
48241;SDS011;34041;51.812;4.622;2023-08-06T06:28:12;9.57;;;5.30;;
48241;SDS011;34041;51.812;4.622;2023-08-06T06:31:12;5.93;;;3.30;;
48241;SDS011;34041;51.812;4.622;2023-08-06T06:34:12;6.37;;;3.43;;
48241;SDS011;34041;51.812;4.622;2023-08-06T06:37:13;5.63;;;2.93;;
48241;SDS011;34041;51.812;4.622;2023-08-06T06:40:13;5.67;;;2.33;;
48241;SDS011;34041;51.812;4.622;2023-08-06T06:43:13;3.08;;;1.83;;
48241;SDS011;34041;51.812;4.622;2023-08-06T06:46:13;4.33;;;2.30;;
48241;SDS011;34041;51.812;4.622;2023-08-06T06:49:14;3.63;;;2.47;;
48241;SDS011;34041;51.812;4.622;2023-08-06T06:52:14;4.82;;;1.83;;
48241;SDS011;34041;51.812;4.622;2023-08-06T06:55:14;3.90;;;2.33;;
48241;SDS011;34041;51.812;4.622;2023-08-06T06:58:15;5.63;;;2.97;;
48241;SDS011;34041;51.812;4.622;2023-08-06T07:01:16;5.90;;;2.75;;
48241;SDS011;34041;51.812;4.622;2023-08-06T07:04:16;2.85;;;1.83;;
48241;SDS011;34041;51.812;4.622;2023-08-06T07:07:16;4.10;;;2.00;;
48241;SDS011;34041;51.812;4.622;2023-08-06T07:10:17;4.00;;;1.97;;
48241;SDS011;34041;51.812;4.622;2023-08-06T07:13:17;3.47;;;1.70;;
48241;SDS011;34041;51.812;4.622;2023-08-06T07:16:17;7.32;;;1.98;;
48241;SDS011;34041;51.812;4.622;2023-08-06T07:19:17;7.90;;;3.27;;
48241;SDS011;34041;51.812;4.622;2023-08-06T07:22:18;4.25;;;1.70;;
48241;SDS011;34041;51.812;4.622;2023-08-06T07:25:18;4.73;;;2.40;;
48241;SDS011;34041;51.812;4.622;2023-08-06T07:28:19;8.57;;;2.00;;
48241;SDS011;34041;51.812;4.622;2023-08-06T07:31:19;6.28;;;2.15;;
48241;SDS011;34041;51.812;4.622;2023-08-06T07:34:20;6.47;;;2.58;;
48241;SDS011;34041;51.812;4.622;2023-08-06T07:37:20;4.33;;;2.70;;
48241;SDS011;34041;51.812;4.622;2023-08-06T07:40:20;6.03;;;3.03;;
48241;SDS011;34041;51.812;4.622;2023-08-06T07:43:20;6.23;;;2.10;;
48241;SDS011;34041;51.812;4.622;2023-08-06T07:46:20;5.30;;;2.70;;
48241;SDS011;34041;51.812;4.622;2023-08-06T07:49:21;6.10;;;2.30;;
48241;SDS011;34041;51.812;4.622;2023-08-06T07:52:21;4.68;;;2.67;;
48241;SDS011;34041;51.812;4.622;2023-08-06T07:55:22;3.87;;;2.60;;
48241;SDS011;34041;51.812;4.622;2023-08-06T07:58:23;4.00;;;2.70;;
48241;SDS011;34041;51.812;4.622;2023-08-06T08:01:23;9.68;;;2.50;;
48241;SDS011;34041;51.812;4.622;2023-08-06T08:04:24;5.23;;;2.77;;
48241;SDS011;34041;51.812;4.622;2023-08-06T08:07:24;6.75;;;2.75;;
48241;SDS011;34041;51.812;4.622;2023-08-06T08:10:24;7.27;;;2.80;;
48241;SDS011;34041;51.812;4.622;2023-08-06T08:13:24;6.77;;;2.30;;
48241;SDS011;34041;51.812;4.622;2023-08-06T08:16:25;8.03;;;3.00;;
48241;SDS011;34041;51.812;4.622;2023-08-06T08:19:25;3.00;;;1.70;;
48241;SDS011;34041;51.812;4.622;2023-08-06T08:22:25;7.10;;;2.43;;
48241;SDS011;34041;51.812;4.622;2023-08-06T08:25:26;6.70;;;3.78;;
48241;SDS011;34041;51.812;4.622;2023-08-06T08:28:26;6.03;;;2.75;;
48241;SDS011;34041;51.812;4.622;2023-08-06T08:31:27;5.10;;;3.47;;
48241;SDS011;34041;51.812;4.622;2023-08-06T08:34:28;7.35;;;2.40;;
48241;SDS011;34041;51.812;4.622;2023-08-06T08:37:28;4.63;;;1.93;;
48241;SDS011;34041;51.812;4.622;2023-08-06T08:40:32;9.00;;;2.73;;
48241;SDS011;34041;51.812;4.622;2023-08-06T08:43:33;6.65;;;2.17;;
48241;SDS011;34041;51.812;4.622;2023-08-06T08:46:33;5.28;;;3.15;;
48241;SDS011;34041;51.812;4.622;2023-08-06T08:49:35;6.38;;;2.72;;
48241;SDS011;34041;51.812;4.622;2023-08-06T08:52:35;4.53;;;3.10;;
48241;SDS011;34041;51.812;4.622;2023-08-06T08:55:36;3.75;;;2.10;;
48241;SDS011;34041;51.812;4.622;2023-08-06T08:58:37;5.43;;;2.72;;
48241;SDS011;34041;51.812;4.622;2023-08-06T09:01:37;5.03;;;2.20;;
48241;SDS011;34041;51.812;4.622;2023-08-06T09:04:40;5.57;;;2.72;;
48241;SDS011;34041;51.812;4.622;2023-08-06T09:07:45;4.72;;;2.03;;
48241;SDS011;34041;51.812;4.622;2023-08-06T09:10:48;2.95;;;1.50;;
48241;SDS011;34041;51.812;4.622;2023-08-06T09:13:48;4.07;;;1.70;;
48241;SDS011;34041;51.812;4.622;2023-08-06T09:16:49;7.35;;;2.10;;
48241;SDS011;34041;51.812;4.622;2023-08-06T09:19:49;2.92;;;1.83;;
48241;SDS011;34041;51.812;4.622;2023-08-06T09:22:52;4.50;;;2.03;;
48241;SDS011;34041;51.812;4.622;2023-08-06T09:25:52;3.40;;;1.73;;
48241;SDS011;34041;51.812;4.622;2023-08-06T09:28:52;4.10;;;1.73;;
48241;SDS011;34041;51.812;4.622;2023-08-06T09:31:53;2.93;;;1.93;;
48241;SDS011;34041;51.812;4.622;2023-08-06T09:34:56;3.13;;;1.73;;
48241;SDS011;34041;51.812;4.622;2023-08-06T09:38:06;5.63;;;2.03;;
48241;SDS011;34041;51.812;4.622;2023-08-06T09:41:07;3.17;;;1.50;;
48241;SDS011;34041;51.812;4.622;2023-08-06T09:44:17;4.63;;;2.47;;
48241;SDS011;34041;51.812;4.622;2023-08-06T09:47:21;3.30;;;1.92;;
48241;SDS011;34041;51.812;4.622;2023-08-06T09:50:26;6.70;;;1.83;;
48241;SDS011;34041;51.812;4.622;2023-08-06T09:53:28;2.70;;;1.15;;
48241;SDS011;34041;51.812;4.622;2023-08-06T09:56:28;3.70;;;1.83;;
48241;SDS011;34041;51.812;4.622;2023-08-06T09:59:29;3.95;;;1.58;;
48241;SDS011;34041;51.812;4.622;2023-08-06T10:02:29;2.22;;;1.33;;
48241;SDS011;34041;51.812;4.622;2023-08-06T10:05:30;2.60;;;1.20;;
48241;SDS011;34041;51.812;4.622;2023-08-06T10:08:31;2.60;;;1.20;;
48241;SDS011;34041;51.812;4.622;2023-08-06T10:11:32;3.35;;;1.35;;
48241;SDS011;34041;51.812;4.622;2023-08-06T10:14:33;4.43;;;1.73;;
48241;SDS011;34041;51.812;4.622;2023-08-06T10:17:34;2.42;;;1.45;;
48241;SDS011;34041;51.812;4.622;2023-08-06T10:20:36;3.58;;;1.45;;
48241;SDS011;34041;51.812;4.622;2023-08-06T10:23:36;3.13;;;1.52;;
48241;SDS011;34041;51.812;4.622;2023-08-06T10:26:38;3.65;;;1.52;;
48241;SDS011;34041;51.812;4.622;2023-08-06T10:29:38;4.63;;;1.20;;
48241;SDS011;34041;51.812;4.622;2023-08-06T10:32:48;4.30;;;1.67;;
48241;SDS011;34041;51.812;4.622;2023-08-06T10:35:52;3.20;;;1.40;;
48241;SDS011;34041;51.812;4.622;2023-08-06T10:39:01;3.58;;;1.42;;
48241;SDS011;34041;51.812;4.622;2023-08-06T10:42:02;3.10;;;1.52;;
48241;SDS011;34041;51.812;4.622;2023-08-06T10:45:21;4.33;;;1.33;;
48241;SDS011;34041;51.812;4.622;2023-08-06T10:48:34;4.63;;;1.60;;
48241;SDS011;34041;51.812;4.622;2023-08-06T10:51:35;2.28;;;1.30;;
48241;SDS011;34041;51.812;4.622;2023-08-06T10:54:35;2.55;;;1.38;;
48241;SDS011;34041;51.812;4.622;2023-08-06T10:57:36;3.03;;;1.45;;
48241;SDS011;34041;51.812;4.622;2023-08-06T11:00:36;3.05;;;1.45;;
48241;SDS011;34041;51.812;4.622;2023-08-06T11:03:37;2.20;;;1.27;;
48241;SDS011;34041;51.812;4.622;2023-08-06T11:06:37;4.40;;;1.52;;
48241;SDS011;34041;51.812;4.622;2023-08-06T11:09:37;4.90;;;1.97;;
48241;SDS011;34041;51.812;4.622;2023-08-06T11:12:38;2.83;;;1.50;;
48241;SDS011;34041;51.812;4.622;2023-08-06T11:15:38;3.05;;;1.48;;
48241;SDS011;34041;51.812;4.622;2023-08-06T11:18:39;3.20;;;1.23;;
48241;SDS011;34041;51.812;4.622;2023-08-06T11:21:39;3.88;;;1.40;;
48241;SDS011;34041;51.812;4.622;2023-08-06T11:24:40;3.00;;;1.30;;
48241;SDS011;34041;51.812;4.622;2023-08-06T11:27:40;2.63;;;1.33;;
48241;SDS011;34041;51.812;4.622;2023-08-06T11:30:40;4.50;;;1.30;;
48241;SDS011;34041;51.812;4.622;2023-08-06T11:33:40;5.33;;;1.27;;
48241;SDS011;34041;51.812;4.622;2023-08-06T11:36:41;4.47;;;2.10;;
48241;SDS011;34041;51.812;4.622;2023-08-06T11:39:45;5.28;;;1.92;;
48241;SDS011;34041;51.812;4.622;2023-08-06T11:42:46;5.32;;;1.67;;
48241;SDS011;34041;51.812;4.622;2023-08-06T11:45:46;3.97;;;1.45;;
48241;SDS011;34041;51.812;4.622;2023-08-06T11:48:50;3.63;;;1.50;;
48241;SDS011;34041;51.812;4.622;2023-08-06T11:51:50;3.07;;;1.47;;
48241;SDS011;34041;51.812;4.622;2023-08-06T11:55:01;4.28;;;1.20;;
48241;SDS011;34041;51.812;4.622;2023-08-06T11:58:03;3.92;;;2.35;;
48241;SDS011;34041;51.812;4.622;2023-08-06T12:01:04;3.88;;;1.35;;
48241;SDS011;34041;51.812;4.622;2023-08-06T12:04:05;5.18;;;1.58;;
48241;SDS011;34041;51.812;4.622;2023-08-06T12:07:05;5.32;;;1.58;;
48241;SDS011;34041;51.812;4.622;2023-08-06T12:10:08;5.07;;;1.50;;
48241;SDS011;34041;51.812;4.622;2023-08-06T12:13:08;4.15;;;1.45;;
48241;SDS011;34041;51.812;4.622;2023-08-06T12:16:08;3.17;;;1.27;;
48241;SDS011;34041;51.812;4.622;2023-08-06T12:19:09;3.90;;;1.63;;
48241;SDS011;34041;51.812;4.622;2023-08-06T12:22:09;3.53;;;1.07;;
48241;SDS011;34041;51.812;4.622;2023-08-06T12:25:10;2.92;;;1.92;;
48241;SDS011;34041;51.812;4.622;2023-08-06T12:28:11;3.42;;;1.25;;
48241;SDS011;34041;51.812;4.622;2023-08-06T12:31:13;2.63;;;1.27;;
48241;SDS011;34041;51.812;4.622;2023-08-06T12:34:13;2.87;;;1.20;;
48241;SDS011;34041;51.812;4.622;2023-08-06T12:37:13;5.82;;;1.38;;
48241;SDS011;34041;51.812;4.622;2023-08-06T12:40:14;3.63;;;1.40;;
48241;SDS011;34041;51.812;4.622;2023-08-06T12:43:14;3.00;;;1.55;;
48241;SDS011;34041;51.812;4.622;2023-08-06T12:46:14;2.10;;;1.10;;
48241;SDS011;34041;51.812;4.622;2023-08-06T12:49:14;4.75;;;1.80;;
48241;SDS011;34041;51.812;4.622;2023-08-06T12:52:14;5.27;;;1.47;;
48241;SDS011;34041;51.812;4.622;2023-08-06T12:55:15;3.28;;;1.30;;
48241;SDS011;34041;51.812;4.622;2023-08-06T12:58:15;3.83;;;1.30;;
48241;SDS011;34041;51.812;4.622;2023-08-06T13:01:15;1.93;;;1.13;;
48241;SDS011;34041;51.812;4.622;2023-08-06T13:04:15;4.47;;;1.53;;
48241;SDS011;34041;51.812;4.622;2023-08-06T13:07:16;3.80;;;1.80;;
48241;SDS011;34041;51.812;4.622;2023-08-06T13:10:16;2.23;;;1.03;;
48241;SDS011;34041;51.812;4.622;2023-08-06T13:13:16;4.17;;;1.07;;
48241;SDS011;34041;51.812;4.622;2023-08-06T13:16:16;3.13;;;1.17;;
48241;SDS011;34041;51.812;4.622;2023-08-06T13:19:17;3.90;;;0.97;;
48241;SDS011;34041;51.812;4.622;2023-08-06T13:22:17;5.07;;;0.85;;
48241;SDS011;34041;51.812;4.622;2023-08-06T13:25:17;3.97;;;1.07;;
48241;SDS011;34041;51.812;4.622;2023-08-06T13:28:18;3.10;;;1.00;;
48241;SDS011;34041;51.812;4.622;2023-08-06T13:31:18;2.37;;;0.67;;
48241;SDS011;34041;51.812;4.622;2023-08-06T13:34:18;4.23;;;1.00;;
48241;SDS011;34041;51.812;4.622;2023-08-06T13:37:18;1.95;;;0.73;;
48241;SDS011;34041;51.812;4.622;2023-08-06T13:40:19;1.30;;;0.70;;
48241;SDS011;34041;51.812;4.622;2023-08-06T13:43:19;3.37;;;1.00;;
48241;SDS011;34041;51.812;4.622;2023-08-06T13:46:19;6.90;;;1.90;;
48241;SDS011;34041;51.812;4.622;2023-08-06T13:49:19;11.30;;;1.90;;
48241;SDS011;34041;51.812;4.622;2023-08-06T13:52:20;8.53;;;2.37;;
48241;SDS011;34041;51.812;4.622;2023-08-06T13:55:21;6.45;;;1.42;;
48241;SDS011;34041;51.812;4.622;2023-08-06T13:58:21;7.53;;;1.95;;
48241;SDS011;34041;51.812;4.622;2023-08-06T14:01:21;7.67;;;2.37;;
48241;SDS011;34041;51.812;4.622;2023-08-06T14:04:22;10.48;;;2.08;;
48241;SDS011;34041;51.812;4.622;2023-08-06T14:07:23;8.17;;;1.80;;
48241;SDS011;34041;51.812;4.622;2023-08-06T14:10:23;8.03;;;1.67;;
48241;SDS011;34041;51.812;4.622;2023-08-06T14:13:23;2.75;;;1.20;;
48241;SDS011;34041;51.812;4.622;2023-08-06T14:16:23;8.23;;;2.13;;
48241;SDS011;34041;51.812;4.622;2023-08-06T14:19:24;6.57;;;1.47;;
48241;SDS011;34041;51.812;4.622;2023-08-06T14:22:24;7.10;;;1.73;;
48241;SDS011;34041;51.812;4.622;2023-08-06T14:25:24;5.22;;;1.23;;
48241;SDS011;34041;51.812;4.622;2023-08-06T14:28:24;4.20;;;1.23;;
48241;SDS011;34041;51.812;4.622;2023-08-06T14:31:25;4.80;;;1.20;;
48241;SDS011;34041;51.812;4.622;2023-08-06T14:34:25;4.53;;;1.50;;
48241;SDS011;34041;51.812;4.622;2023-08-06T14:37:25;3.28;;;1.30;;
48241;SDS011;34041;51.812;4.622;2023-08-06T14:40:25;5.57;;;1.40;;
48241;SDS011;34041;51.812;4.622;2023-08-06T14:43:28;3.67;;;1.08;;
48241;SDS011;34041;51.812;4.622;2023-08-06T14:46:28;3.92;;;1.15;;
48241;SDS011;34041;51.812;4.622;2023-08-06T14:49:28;4.40;;;1.10;;
48241;SDS011;34041;51.812;4.622;2023-08-06T14:52:29;4.97;;;1.30;;
48241;SDS011;34041;51.812;4.622;2023-08-06T14:55:29;7.25;;;1.10;;
48241;SDS011;34041;51.812;4.622;2023-08-06T14:58:29;2.97;;;1.17;;
48241;SDS011;34041;51.812;4.622;2023-08-06T15:01:30;7.33;;;1.67;;
48241;SDS011;34041;51.812;4.622;2023-08-06T15:04:30;4.10;;;0.80;;
48241;SDS011;34041;51.812;4.622;2023-08-06T15:07:30;5.07;;;1.92;;
48241;SDS011;34041;51.812;4.622;2023-08-06T15:10:33;7.03;;;1.73;;
48241;SDS011;34041;51.812;4.622;2023-08-06T15:13:33;7.80;;;1.90;;
48241;SDS011;34041;51.812;4.622;2023-08-06T15:16:33;9.00;;;1.63;;
48241;SDS011;34041;51.812;4.622;2023-08-06T15:19:34;6.45;;;1.98;;
48241;SDS011;34041;51.812;4.622;2023-08-06T15:22:34;7.40;;;1.90;;
48241;SDS011;34041;51.812;4.622;2023-08-06T15:25:34;4.90;;;1.30;;
48241;SDS011;34041;51.812;4.622;2023-08-06T15:28:35;5.50;;;1.23;;
48241;SDS011;34041;51.812;4.622;2023-08-06T15:31:38;4.57;;;1.50;;
48241;SDS011;34041;51.812;4.622;2023-08-06T15:34:39;9.75;;;1.85;;
48241;SDS011;34041;51.812;4.622;2023-08-06T15:37:40;6.90;;;1.67;;
48241;SDS011;34041;51.812;4.622;2023-08-06T15:40:40;5.83;;;1.33;;
48241;SDS011;34041;51.812;4.622;2023-08-06T15:43:40;4.17;;;1.10;;
48241;SDS011;34041;51.812;4.622;2023-08-06T15:46:41;4.32;;;1.17;;
48241;SDS011;34041;51.812;4.622;2023-08-06T15:49:42;6.07;;;1.48;;
48241;SDS011;34041;51.812;4.622;2023-08-06T15:52:42;4.85;;;1.42;;
48241;SDS011;34041;51.812;4.622;2023-08-06T15:55:42;5.87;;;2.03;;
48241;SDS011;34041;51.812;4.622;2023-08-06T15:58:42;5.80;;;1.40;;
48241;SDS011;34041;51.812;4.622;2023-08-06T16:01:43;7.47;;;1.30;;
48241;SDS011;34041;51.812;4.622;2023-08-06T16:04:43;7.33;;;1.53;;
48241;SDS011;34041;51.812;4.622;2023-08-06T16:07:43;7.50;;;2.20;;
48241;SDS011;34041;51.812;4.622;2023-08-06T16:10:43;5.63;;;1.90;;
48241;SDS011;34041;51.812;4.622;2023-08-06T16:13:45;8.20;;;1.90;;
48241;SDS011;34041;51.812;4.622;2023-08-06T16:16:45;6.97;;;1.93;;
48241;SDS011;34041;51.812;4.622;2023-08-06T16:19:46;6.35;;;1.77;;
48241;SDS011;34041;51.812;4.622;2023-08-06T16:22:46;7.28;;;1.90;;
48241;SDS011;34041;51.812;4.622;2023-08-06T16:25:46;8.93;;;3.67;;
48241;SDS011;34041;51.812;4.622;2023-08-06T16:28:47;7.88;;;2.45;;
48241;SDS011;34041;51.812;4.622;2023-08-06T16:31:47;11.27;;;2.73;;
48241;SDS011;34041;51.812;4.622;2023-08-06T16:34:48;8.70;;;3.17;;
48241;SDS011;34041;51.812;4.622;2023-08-06T16:37:49;4.97;;;1.55;;
48241;SDS011;34041;51.812;4.622;2023-08-06T16:40:53;6.47;;;1.90;;
48241;SDS011;34041;51.812;4.622;2023-08-06T16:43:53;5.57;;;1.77;;
48241;SDS011;34041;51.812;4.622;2023-08-06T16:46:54;4.95;;;1.85;;
48241;SDS011;34041;51.812;4.622;2023-08-06T16:49:54;8.10;;;1.93;;
48241;SDS011;34041;51.812;4.622;2023-08-06T16:52:54;5.93;;;2.30;;
48241;SDS011;34041;51.812;4.622;2023-08-06T16:55:54;6.03;;;1.80;;
48241;SDS011;34041;51.812;4.622;2023-08-06T16:58:56;4.35;;;1.88;;
48241;SDS011;34041;51.812;4.622;2023-08-06T17:01:56;6.80;;;1.30;;
48241;SDS011;34041;51.812;4.622;2023-08-06T17:04:57;6.15;;;1.80;;
48241;SDS011;34041;51.812;4.622;2023-08-06T17:07:57;4.13;;;1.00;;
48241;SDS011;34041;51.812;4.622;2023-08-06T17:10:57;5.03;;;2.00;;
48241;SDS011;34041;51.812;4.622;2023-08-06T17:13:57;8.90;;;1.83;;
48241;SDS011;34041;51.812;4.622;2023-08-06T17:16:58;5.15;;;2.33;;
48241;SDS011;34041;51.812;4.622;2023-08-06T17:19:58;5.93;;;1.77;;
48241;SDS011;34041;51.812;4.622;2023-08-06T17:22:58;8.20;;;1.63;;
48241;SDS011;34041;51.812;4.622;2023-08-06T17:25:58;6.17;;;1.73;;
48241;SDS011;34041;51.812;4.622;2023-08-06T17:28:59;9.00;;;2.20;;
48241;SDS011;34041;51.812;4.622;2023-08-06T17:31:59;7.33;;;2.60;;
48241;SDS011;34041;51.812;4.622;2023-08-06T17:34:59;10.82;;;1.77;;
48241;SDS011;34041;51.812;4.622;2023-08-06T17:37:59;8.02;;;1.95;;
48241;SDS011;34041;51.812;4.622;2023-08-06T17:41:00;7.93;;;1.83;;
48241;SDS011;34041;51.812;4.622;2023-08-06T17:47:05;7.25;;;2.15;;
48241;SDS011;34041;51.812;4.622;2023-08-06T17:50:05;10.60;;;3.00;;
48241;SDS011;34041;51.812;4.622;2023-08-06T17:53:06;7.28;;;1.83;;
48241;SDS011;34041;51.812;4.622;2023-08-06T17:56:06;6.07;;;2.50;;
48241;SDS011;34041;51.812;4.622;2023-08-06T17:59:06;6.95;;;1.70;;
48241;SDS011;34041;51.812;4.622;2023-08-06T18:02:06;5.50;;;1.40;;
48241;SDS011;34041;51.812;4.622;2023-08-06T18:05:07;6.20;;;1.77;;
48241;SDS011;34041;51.812;4.622;2023-08-06T18:08:07;5.00;;;1.20;;
48241;SDS011;34041;51.812;4.622;2023-08-06T18:11:07;5.27;;;1.17;;
48241;SDS011;34041;51.812;4.622;2023-08-06T18:14:07;6.25;;;1.50;;
48241;SDS011;34041;51.812;4.622;2023-08-06T18:17:07;2.73;;;1.00;;